Adriatic Id — VRFP6 — position and weather

sailwx.info

Track history (hours):
 
Tides and Currents Weather Stations Pressure Air Temp Water Temp Dewpoint Dewpoint Depression Visibility Wind Speed Wind Dir Waves Ship Positions

Adriatic Id

Last reported at 2015-Aug-05 09:30 UTC. Time now 2015-Aug-05 12:33 UTC.
Position N 26°03' E 119°30'.

Length 158 m; draft 5.5 m.

Type: Cargo ship. MMSI: 477559800.

Date/timePositionNaut miles runAvg speedWind from/ knotsBaromVisibWave heightAir tempDewpointWater temp
2015-Aug-05 09:30N 26°03' E 119°30'0 0.0
2015-Aug-05 08:30N 26°03' E 119°30'0 0.0
2015-Aug-05 07:12N 26°03' E 119°30'0 0.0
2015-Aug-05 06:12N 26°03' E 119°30'0 0.0
2015-Aug-05 05:24N 26°03' E 119°30'0 0.0
2015-Aug-05 04:30N 26°03' E 119°30'0 0.1
2015-Aug-05 01:33N 26°03' E 119°30'10 6.9
2015-Aug-05 00:04N 26°06' E 119°41'10 2.1
2015-Aug-04 19:09N 26°02' E 119°52'  
2015-Aug-01 02:22N 26°08' E 119°35'6 7.8
2015-Aug-01 01:32N 26°03' E 119°30'1 0.7
2015-Aug-01 00:31N 26°03' E 119°30'0 0.0
2015-Jul-31 23:31N 26°03' E 119°30'0 0.0
2015-Jul-31 22:31N 26°03' E 119°30'0 0.0
2015-Jul-31 21:13N 26°03' E 119°30'0 0.0
2015-Jul-31 20:31N 26°03' E 119°30'0 0.0
2015-Jul-31 19:31N 26°03' E 119°30'0 0.0
2015-Jul-31 18:31N 26°03' E 119°30'0 0.0
2015-Jul-31 16:07N 26°03' E 119°30'0 0.0
2015-Jul-31 15:31N 26°03' E 119°30'0 0.0
2015-Jul-31 14:25N 26°03' E 119°30'0 0.0
2015-Jul-31 13:18N 26°03' E 119°30'0 0.0
2015-Jul-31 12:30N 26°03' E 119°30'0 0.0
2015-Jul-31 11:30N 26°03' E 119°30'0 0.0
2015-Jul-31 10:30N 26°03' E 119°30'0 0.0
2015-Jul-31 09:30N 26°03' E 119°30'0 0.0
2015-Jul-31 08:24N 26°03' E 119°30'0 0.0
2015-Jul-31 06:30N 26°03' E 119°30'0 0.0
2015-Jul-31 05:30N 26°03' E 119°30'0 0.0
2015-Jul-31 03:32N 26°03' E 119°30'  
2015-Jul-27 23:08N 26°08' E 119°35'5 8.8
2015-Jul-27 22:34N 26°05' E 119°31'2 2.1
2015-Jul-27 21:30N 26°03' E 119°30'0 0.0
2015-Jul-27 20:30N 26°03' E 119°30'0 0.0
2015-Jul-27 19:30N 26°03' E 119°30'0 0.0
2015-Jul-27 18:30N 26°03' E 119°30'0 0.0
2015-Jul-27 17:30N 26°03' E 119°30'0 0.0
2015-Jul-27 16:30N 26°03' E 119°30'0 0.0
2015-Jul-27 15:30N 26°03' E 119°30'0 0.0
2015-Jul-27 14:24N 26°03' E 119°30'0 0.0
2015-Jul-27 13:24N 26°03' E 119°30'0 0.0
2015-Jul-27 12:24N 26°03' E 119°30'0 0.0
2015-Jul-27 11:30N 26°03' E 119°30'0 0.0
2015-Jul-27 10:30N 26°03' E 119°30'0 0.0
2015-Jul-27 09:30N 26°03' E 119°30'0 0.1
2015-Jul-27 08:30N 26°03' E 119°30'0 0.1
2015-Jul-27 07:30N 26°03' E 119°30'0 0.0
2015-Jul-27 06:30N 26°03' E 119°30'0 0.0
2015-Jul-27 05:24N 26°03' E 119°30'0 0.0
2015-Jul-27 04:30N 26°03' E 119°30'0 0.0
2015-Jul-27 03:24N 26°03' E 119°30'0 0.0
2015-Jul-27 02:30N 26°03' E 119°30'2 2.4
2015-Jul-27 01:33N 26°05' E 119°31'9 7.5
2015-Jul-27 00:24N 26°06' E 119°41'  
Track history (hours):
 
Tides and Currents Weather Stations Pressure Air Temp Water Temp Dewpoint Dewpoint Depression Visibility Wind Speed Wind Dir Waves Ship Positions

Adriatic Id

Last reported at 2015-Aug-05 09:30 UTC. Time now 2015-Aug-05 12:33 UTC.
Position N 26°03' E 119°30'.

Length 158 m; draft 5.5 m.

Type: Cargo ship. MMSI: 477559800.

Date/timePositionNaut miles runAvg speedWind from/ knotsBaromVisibWave heightAir tempDewpointWater temp
2015-Aug-05 09:30N 26°03' E 119°30'0 0.0
2015-Aug-05 08:30N 26°03' E 119°30'0 0.0
2015-Aug-05 07:12N 26°03' E 119°30'0 0.0
2015-Aug-05 06:12N 26°03' E 119°30'0 0.0
2015-Aug-05 05:24N 26°03' E 119°30'0 0.0
2015-Aug-05 04:30N 26°03' E 119°30'0 0.1
2015-Aug-05 01:33N 26°03' E 119°30'10 6.9
2015-Aug-05 00:04N 26°06' E 119°41'10 2.1
2015-Aug-04 19:09N 26°02' E 119°52'  
2015-Aug-01 02:22N 26°08' E 119°35'6 7.8
2015-Aug-01 01:32N 26°03' E 119°30'1 0.7
2015-Aug-01 00:31N 26°03' E 119°30'0 0.0
2015-Jul-31 23:31N 26°03' E 119°30'0 0.0
2015-Jul-31 22:31N 26°03' E 119°30'0 0.0
2015-Jul-31 21:13N 26°03' E 119°30'0 0.0
2015-Jul-31 20:31N 26°03' E 119°30'0 0.0
2015-Jul-31 19:31N 26°03' E 119°30'0 0.0
2015-Jul-31 18:31N 26°03' E 119°30'0 0.0
2015-Jul-31 16:07N 26°03' E 119°30'0 0.0
2015-Jul-31 15:31N 26°03' E 119°30'0 0.0
2015-Jul-31 14:25N 26°03' E 119°30'0 0.0
2015-Jul-31 13:18N 26°03' E 119°30'0 0.0
2015-Jul-31 12:30N 26°03' E 119°30'0 0.0
2015-Jul-31 11:30N 26°03' E 119°30'0 0.0
2015-Jul-31 10:30N 26°03' E 119°30'0 0.0
2015-Jul-31 09:30N 26°03' E 119°30'0 0.0
2015-Jul-31 08:24N 26°03' E 119°30'0 0.0
2015-Jul-31 06:30N 26°03' E 119°30'0 0.0
2015-Jul-31 05:30N 26°03' E 119°30'0 0.0
2015-Jul-31 03:32N 26°03' E 119°30'  
2015-Jul-27 23:08N 26°08' E 119°35'5 8.8
2015-Jul-27 22:34N 26°05' E 119°31'2 2.1
2015-Jul-27 21:30N 26°03' E 119°30'0 0.0
2015-Jul-27 20:30N 26°03' E 119°30'0 0.0
2015-Jul-27 19:30N 26°03' E 119°30'0 0.0
2015-Jul-27 18:30N 26°03' E 119°30'0 0.0
2015-Jul-27 17:30N 26°03' E 119°30'0 0.0
2015-Jul-27 16:30N 26°03' E 119°30'0 0.0
2015-Jul-27 15:30N 26°03' E 119°30'0 0.0
2015-Jul-27 14:24N 26°03' E 119°30'0 0.0
2015-Jul-27 13:24N 26°03' E 119°30'0 0.0
2015-Jul-27 12:24N 26°03' E 119°30'0 0.0
2015-Jul-27 11:30N 26°03' E 119°30'0 0.0
2015-Jul-27 10:30N 26°03' E 119°30'0 0.0
2015-Jul-27 09:30N 26°03' E 119°30'0 0.1
2015-Jul-27 08:30N 26°03' E 119°30'0 0.1
2015-Jul-27 07:30N 26°03' E 119°30'0 0.0
2015-Jul-27 06:30N 26°03' E 119°30'0 0.0
2015-Jul-27 05:24N 26°03' E 119°30'0 0.0
2015-Jul-27 04:30N 26°03' E 119°30'0 0.0
2015-Jul-27 03:24N 26°03' E 119°30'0 0.0
2015-Jul-27 02:30N 26°03' E 119°30'2 2.4
2015-Jul-27 01:33N 26°05' E 119°31'9 7.5
2015-Jul-27 00:24N 26°06' E 119°41'  

Dump ship's entire track history